Time;durP1;ratioP1;P1;durP2;ratioP2;P2;SDS_P1;SDS_P2;PMS_P1;PMS_P2;Temp;Humidity;BMP_temperature;BMP_pressure;BME280_temperature;BME280_humidity;BME280_pressure;Samples;Min_cycle;Max_cycle;Signal;HPM_P1;HPM_P2
2022/12/28 00:02:25;;;;;;;;;14.80;11.40;;;;;11.38;39.64;100753.53;5076553;27;8821;-75
2022/12/28 00:04:54;;;;;;;;;11.60;10.40;;;;;11.43;40.56;100746.66;5093881;27;8929;-75
2022/12/28 00:07:23;;;;;;;;;11.80;11.60;;;;;11.46;39.16;100738.88;5129134;27;8868;-76
2022/12/28 00:09:51;;;;;;;;;11.80;11.20;;;;;11.49;38.88;100736.28;5110626;27;8837;-72
2022/12/28 00:12:20;;;;;;;;;8.00;7.40;;;;;11.53;38.91;100735.50;5129012;27;8833;-72
2022/12/28 00:14:49;;;;;;;;;16.60;14.00;;;;;11.56;39.21;100745.97;5110036;27;9008;-75
2022/12/28 00:17:18;;;;;;;;;10.80;10.20;;;;;11.52;39.45;100738.94;5105373;28;8833;-74
2022/12/28 00:19:48;;;;;;;;;15.00;14.20;;;;;11.52;39.02;100731.97;5107532;27;9645;-74
2022/12/28 00:22:17;;;;;;;;;12.40;11.00;;;;;11.56;40.09;100727.69;5108399;27;8839;-76
2022/12/28 00:24:46;;;;;;;;;14.40;13.20;;;;;11.61;40.13;100722.53;5091484;27;8847;-76
2022/12/28 00:27:14;;;;;;;;;12.60;12.60;;;;;11.61;39.05;100726.03;5091250;27;8839;-73
2022/12/28 00:29:43;;;;;;;;;12.80;12.80;;;;;11.55;39.03;100730.28;5125678;27;8870;-75
2022/12/28 00:32:12;;;;;;;;;13.60;11.20;;;;;11.48;39.98;100734.53;5091375;27;8871;-74
2022/12/28 00:34:41;;;;;;;;;11.00;11.00;;;;;11.48;40.20;100739.75;5108353;27;8839;-76
2022/12/28 00:37:10;;;;;;;;;12.00;12.00;;;;;11.47;39.96;100736.28;5122278;27;8826;-74
2022/12/28 00:39:42;;;;;;;;;8.80;7.00;;;;;11.40;38.60;100738.75;5125757;27;8846;-75
2022/12/28 00:42:15;;;;;;;;;13.60;11.40;;;;;11.37;38.92;100736.13;5125373;27;8961;-73
2022/12/28 00:44:44;;;;;;;;;13.40;11.80;;;;;11.21;38.86;100732.38;5108479;27;8854;-75
2022/12/28 00:47:16;;;;;;;;;8.60;7.00;;;;;11.20;40.14;100731.50;5043025;27;8858;-75
2022/12/28 00:49:45;;;;;;;;;10.00;9.20;;;;;11.17;39.80;100726.25;5113013;27;8843;-78
2022/12/28 00:52:15;;;;;;;;;10.00;9.20;;;;;11.17;39.80;100726.25;5131257;27;8828;-73
2022/12/28 00:54:43;;;;;;;;;6.80;6.80;;;;;11.17;39.72;100715.81;5107067;28;8851;-75
2022/12/28 00:57:12;;;;;;;;;7.80;6.00;;;;;11.14;40.13;100718.34;5074642;28;8864;-76
2022/12/28 00:59:41;;;;;;;;;10.00;10.00;;;;;11.10;39.03;100719.16;5092416;28;8831;-76
2022/12/28 01:02:09;;;;;;;;;11.60;9.40;;;;;10.85;39.05;100710.91;5097431;28;8882;-73
2022/12/28 01:04:38;;;;;;;;;11.60;9.80;;;;;10.23;39.88;100719.31;5072699;28;8835;-75
2022/12/28 01:07:07;;;;;;;;;9.40;9.00;;;;;10.45;40.46;100736.28;5071278;28;8874;-74
2022/12/28 01:09:37;;;;;;;;;9.60;9.60;;;;;10.56;40.67;100717.34;5071735;28;8944;-74
2022/12/28 01:12:06;;;;;;;;;12.60;9.40;;;;;10.62;41.19;100720.94;5085067;28;8852;-78
2022/12/28 01:14:35;;;;;;;;;12.40;10.00;;;;;10.70;41.31;100713.28;5091608;28;8863;-75
2022/12/28 01:17:04;;;;;;;;;12.20;10.60;;;;;10.74;40.55;100707.25;5074570;28;8848;-75
2022/12/28 01:19:33;;;;;;;;;11.80;10.60;;;;;10.76;41.04;100699.47;5074432;28;8864;-74
2022/12/28 01:22:01;;;;;;;;;11.00;11.00;;;;;10.80;41.14;100698.66;5108269;28;8835;-75
2022/12/28 01:24:30;;;;;;;;;13.40;10.60;;;;;10.83;41.11;100702.19;5108416;28;8840;-75
2022/12/28 01:27:02;;;;;;;;;14.80;14.00;;;;;10.86;41.17;100714.41;5130518;27;8863;-76
2022/12/28 01:29:31;;;;;;;;;13.40;13.40;;;;;10.88;41.22;100708.34;5132269;27;8879;-74
2022/12/28 01:31:59;;;;;;;;;18.80;18.80;;;;;10.86;41.57;100707.44;5133265;27;8966;-73
2022/12/28 01:34:30;;;;;;;;;20.80;16.60;;;;;10.87;40.96;100693.56;5116538;27;8839;-75
2022/12/28 01:36:58;;;;;;;;;15.40;13.80;;;;;10.84;42.27;100692.63;5151662;27;8832;-72
2022/12/28 01:39:28;;;;;;;;;18.80;18.80;;;;;10.83;41.50;100690.84;5116042;27;8851;-74
2022/12/28 01:41:57;;;;;;;;;18.80;18.20;;;;;10.82;41.13;100692.59;5118977;27;8845;-72
2022/12/28 01:44:50;;;;;;;;;25.60;21.80;;;;;10.93;41.45;100698.88;5112702;27;8822;-73
2022/12/28 01:47:23;;;;;;;;;27.20;21.40;;;;;10.64;40.77;100693.16;5145503;27;9611;-77
2022/12/28 01:50:01;;;;;;;;;25.00;22.60;;;;;10.70;41.47;100697.63;5132867;27;8835;-75
2022/12/28 01:52:35;;;;;;;;;24.20;22.60;;;;;10.61;40.94;100692.22;5151083;27;8907;-74
2022/12/28 01:55:09;;;;;;;;;22.20;20.20;;;;;10.21;41.58;100699.25;5132430;27;8966;-73
2022/12/28 01:57:42;;;;;;;;;25.60;23.20;;;;;10.08;41.67;100696.41;5132667;27;8919;-77
2022/12/28 02:00:15;;;;;;;;;30.00;25.80;;;;;9.50;43.51;100698.66;5081114;27;9064;-76
2022/12/28 02:02:52;;;;;;;;;24.40;20.80;;;;;9.25;43.82;100702.44;5093723;27;8821;-75
2022/12/28 02:05:26;;;;;;;;;27.40;23.60;;;;;9.28;43.74;100699.00;5111525;27;8861;-73
2022/12/28 02:08:02;;;;;;;;;31.00;26.00;;;;;9.54;44.24;100702.22;5094222;27;8830;-75
2022/12/28 02:10:33;;;;;;;;;26.80;24.20;;;;;9.66;45.08;100704.19;5130214;27;8845;-71
2022/12/28 02:13:14;;;;;;;;;29.20;28.00;;;;;9.83;44.33;100691.53;5134353;27;8953;-72
2022/12/28 02:15:45;;;;;;;;;26.40;25.60;;;;;10.01;45.15;100688.44;5111620;27;8835;-74
2022/12/28 02:18:16;;;;;;;;;25.60;23.80;;;;;10.08;43.88;100679.91;5151855;27;8861;-72
2022/12/28 02:21:07;;;;;;;;;24.80;23.20;;;;;10.07;42.94;100691.16;5112690;27;9595;-75
2022/12/28 02:23:47;;;;;;;;;29.60;25.20;;;;;10.08;43.11;100703.38;5129788;27;9042;-73
2022/12/28 02:26:43;;;;;;;;;33.40;28.20;;;;;10.24;44.43;100705.41;5077261;27;8860;-74
2022/12/28 02:29:41;;;;;;;;;27.20;26.00;;;;;10.29;44.54;100708.13;5129708;27;9579;-77
2022/12/28 02:32:19;;;;;;;;;30.80;26.60;;;;;10.32;44.34;100695.16;5129726;27;9676;-76
2022/12/28 02:34:56;;;;;;;;;36.50;34.00;;;;;10.30;44.34;100684.72;5125288;27;8831;-74
2022/12/28 02:37:28;;;;;;;;;34.67;32.00;;;;;10.32;43.94;100677.81;5132988;27;8835;-74
2022/12/28 02:40:01;;;;;;;;;32.00;32.00;;;;;10.32;44.00;100679.50;5144255;27;8848;-76
2022/12/28 02:42:31;;;;;;;;;44.25;36.50;;;;;10.29;44.51;100682.91;5130654;27;8813;-75
2022/12/28 02:50:46;;;;;;;;;37.00;31.75;;;;;10.28;44.40;100682.88;5140546;27;8912;-72
2022/12/28 02:53:33;;;;;;;;;37.25;31.50;;;;;10.33;43.91;100671.72;5131444;27;8831;-76
2022/12/28 02:56:15;;;;;;;;;26.50;25.75;;;;;10.32;44.59;100676.91;5131580;27;9616;-76
2022/12/28 02:59:17;;;;;;;;;26.50;26.50;;;;;10.42;43.95;100686.69;5096545;27;8831;-74
2022/12/28 03:02:07;;;;;;;;;33.00;29.80;;;;;10.35;44.42;100705.66;5080284;27;8873;-74
2022/12/28 03:04:53;;;;;;;;;29.00;25.60;;;;;10.31;43.19;100693.41;5130925;27;8835;-73
2022/12/28 03:10:25;;;;;;;;;28.20;26.40;;;;;10.27;44.38;100674.19;5111093;27;8844;-72
2022/12/28 03:13:01;;;;;;;;;26.60;22.80;;;;;10.27;43.91;100674.19;5110518;27;8837;-76
2022/12/28 03:15:37;;;;;;;;;26.50;26.50;;;;;10.25;43.88;100680.25;5110593;27;8830;-73
2022/12/28 03:32:29;;;;;;;;;36.25;32.00;;;;;10.22;43.54;100677.56;5150284;27;8954;-74
2022/12/28 03:35:00;;;;;;;;;21.25;15.75;;;;;10.16;44.00;100673.09;5125813;27;9486;-73
2022/12/28 03:37:37;;;;;;;;;23.00;21.40;;;;;10.08;44.29;100677.31;5109237;27;8842;-74
2022/12/28 03:40:22;;;;;;;;;25.00;23.00;;;;;10.13;44.17;100670.44;5108297;27;8847;-71
2022/12/28 03:45:49;;;;;;;;;21.20;21.00;;;;;10.06;44.12;100679.88;5108846;27;8870;-72
2022/12/28 03:48:22;;;;;;;;;21.80;21.40;;;;;10.04;43.77;100685.91;5109025;27;8927;-75
2022/12/28 03:50:55;;;;;;;;;26.40;25.40;;;;;10.13;44.43;100683.47;5109045;27;8862;-73
2022/12/28 03:53:28;;;;;;;;;19.20;19.20;;;;;10.03;42.63;100681.53;5108892;27;8838;-75
2022/12/28 03:56:10;;;;;;;;;25.60;23.20;;;;;9.97;43.21;100677.09;5107736;27;8967;-75
2022/12/28 03:58:41;;;;;;;;;29.00;27.60;;;;;9.94;43.40;100682.22;5109227;27;8866;-74
2022/12/28 04:01:09;;;;;;;;;30.00;26.60;;;;;9.96;44.03;100675.31;5092639;27;9646;-74
2022/12/28 04:03:43;;;;;;;;;29.40;23.00;;;;;10.03;43.56;100682.41;5109252;27;8831;-75
2022/12/28 04:06:15;;;;;;;;;31.50;27.50;;;;;10.11;43.57;100686.06;5120970;27;8871;-72
2022/12/28 04:08:46;;;;;;;;;31.50;23.75;;;;;10.15;43.41;100686.97;5127462;27;8925;-75
2022/12/28 04:11:15;;;;;;;;;25.00;23.25;;;;;10.14;43.18;100682.63;5085711;27;8840;-75
2022/12/28 04:13:49;;;;;;;;;28.50;25.50;;;;;10.19;43.62;100694.03;5114280;27;8827;-77
2022/12/28 04:16:19;;;;;;;;;29.25;25.25;;;;;10.25;44.45;100690.66;5035562;28;8864;-73
2022/12/28 04:18:47;;;;;;;;;31.00;31.00;;;;;10.30;44.67;100676.91;5084797;28;8857;-77
2022/12/28 04:21:17;;;;;;;;;24.25;24.00;;;;;10.37;43.77;100674.41;5035475;28;8884;-74
2022/12/28 04:23:46;;;;;;;;;24.20;23.20;;;;;10.39;43.88;100672.69;5051612;28;8866;-76
2022/12/28 04:26:21;;;;;;;;;24.20;21.60;;;;;10.40;42.84;100671.88;5066972;28;8845;-75
2022/12/28 04:28:53;;;;;;;;;22.80;21.80;;;;;10.45;42.52;100673.72;5071499;28;8889;-75
2022/12/28 04:31:48;;;;;;;;;24.20;18.00;;;;;10.43;42.78;100672.78;4989095;28;8965;-75
2022/12/28 04:34:20;;;;;;;;;24.40;19.20;;;;;10.45;42.47;100672.81;4973162;28;8844;-76
2022/12/28 04:36:58;;;;;;;;;20.60;19.60;;;;;10.49;44.09;100674.59;4989126;28;8875;-76
2022/12/28 04:39:28;;;;;;;;;18.60;18.20;;;;;10.44;42.41;100677.16;4978296;28;8857;-74
2022/12/28 04:42:16;;;;;;;;;23.60;21.20;;;;;10.52;43.69;100685.13;4999399;28;9311;-75
2022/12/28 04:44:45;;;;;;;;;20.20;17.20;;;;;10.56;42.50;100683.44;4989641;28;8835;-76
2022/12/28 04:47:14;;;;;;;;;21.60;21.00;;;;;10.53;42.82;100674.72;5004592;28;8880;-72
2022/12/28 04:49:43;;;;;;;;;40.75;37.75;;;;;10.57;42.39;100675.66;5035278;28;8916;-76
2022/12/28 04:52:13;;;;;;;;;34.00;29.75;;;;;10.61;42.45;100680.06;5047865;28;8870;-75
2022/12/28 04:54:43;;;;;;;;;27.60;25.20;;;;;10.62;41.96;100667.88;5020578;28;8847;-75
2022/12/28 04:57:11;;;;;;;;;24.20;20.20;;;;;10.66;42.03;100674.91;5008271;28;8956;-76
2022/12/28 04:59:40;;;;;;;;;18.20;17.60;;;;;10.71;42.74;100666.31;4986421;28;8845;-76
2022/12/28 05:02:09;;;;;;;;;20.20;17.40;;;;;10.76;41.57;100679.44;5028558;28;8868;-75
2022/12/28 05:04:38;;;;;;;;;77.00;61.75;;;;;10.80;43.34;100664.72;5028283;28;8897;-75
2022/12/28 05:07:07;;;;;;;;;29.00;26.25;;;;;10.84;43.27;100670.00;5031487;28;8850;-71
2022/12/28 05:09:37;;;;;;;;;21.40;20.60;;;;;10.89;41.92;100676.19;5128925;27;8842;-77
2022/12/28 05:12:06;;;;;;;;;29.40;26.60;;;;;10.88;42.56;100671.81;5095513;27;8950;-75
2022/12/28 05:14:35;;;;;;;;;23.20;21.40;;;;;10.93;42.54;100666.69;5130300;27;8830;-78
2022/12/28 05:17:04;;;;;;;;;31.75;31.50;;;;;10.93;42.76;100664.94;5131524;27;8842;-75
2022/12/28 05:19:33;;;;;;;;;33.50;33.25;;;;;10.91;42.28;100658.81;5112073;27;8850;-74
2022/12/28 05:22:02;;;;;;;;;40.25;39.75;;;;;10.90;43.53;100664.00;5131046;27;8838;-75
2022/12/28 05:24:31;;;;;;;;;38.50;34.25;;;;;10.97;43.64;100663.25;5108921;27;8917;-71
2022/12/28 05:27:01;;;;;;;;;64.00;52.00;;;;;11.03;43.00;100663.34;5110129;28;8881;-76
2022/12/28 05:29:30;;;;;;;;;46.50;39.50;;;;;10.99;42.05;100663.28;5125972;27;8871;-76
2022/12/28 05:31:58;;;;;;;;;70.50;56.25;;;;;10.96;41.83;100661.50;5090797;28;8983;-77
2022/12/28 05:34:27;;;;;;;;;39.25;38.75;;;;;10.98;42.24;100653.69;5110854;28;8837;-74
2022/12/28 05:36:56;;;;;;;;;34.00;32.00;;;;;11.00;41.39;100651.97;5075562;28;8942;-76
2022/12/28 05:39:25;;;;;;;;;39.50;37.00;;;;;11.06;42.49;100652.09;5109333;28;8887;-73
2022/12/28 05:41:53;;;;;;;;;42.25;38.25;;;;;11.05;42.48;100653.81;5110448;28;8853;-75
2022/12/28 05:44:24;;;;;;;;;32.00;31.75;;;;;11.12;42.23;100654.78;5075548;28;8829;-75
2022/12/28 05:46:52;;;;;;;;;35.25;31.00;;;;;11.11;42.17;100643.47;5110649;28;10255;-75
2022/12/28 05:49:21;;;;;;;;;30.00;26.80;;;;;11.09;41.96;100644.28;5108331;27;8833;-71
2022/12/28 05:51:50;;;;;;;;;21.40;21.00;;;;;11.02;42.41;100637.22;5074173;28;8988;-72
2022/12/28 05:54:19;;;;;;;;;29.00;26.75;;;;;11.09;42.37;100644.28;5110084;28;9339;-78
2022/12/28 05:56:51;;;;;;;;;35.50;31.50;;;;;11.15;41.96;100643.50;5056765;28;8857;-74
2022/12/28 05:59:20;;;;;;;;;57.25;46.25;;;;;11.14;42.39;100644.38;5115240;27;8834;-74
2022/12/28 06:01:50;;;;;;;;;61.00;49.50;;;;;11.05;42.50;100643.38;5128796;27;8997;-73
2022/12/28 06:04:20;;;;;;;;;47.25;39.75;;;;;10.85;42.32;100650.00;5129070;27;8838;-73
2022/12/28 06:06:49;;;;;;;;;42.50;39.00;;;;;10.89;42.48;100654.44;5109119;27;8864;-74
2022/12/28 06:09:18;;;;;;;;;42.50;39.00;;;;;10.86;42.60;100659.59;5109016;27;8861;-75
2022/12/28 06:11:47;;;;;;;;;38.00;36.50;;;;;10.91;42.27;100661.44;5109325;28;9626;-72
2022/12/28 06:14:16;;;;;;;;;33.75;33.00;;;;;10.91;42.18;100671.00;5109507;28;8837;-74
2022/12/28 06:16:44;;;;;;;;;61.00;47.50;;;;;10.92;41.60;100664.91;5109343;28;8885;-75
2022/12/28 06:19:15;;;;;;;;;60.50;48.50;;;;;10.89;42.15;100657.94;5083906;28;8845;-75
2022/12/28 06:21:44;;;;;;;;;45.50;40.00;;;;;10.87;42.14;100664.00;5114627;27;8897;-74
2022/12/28 06:24:13;;;;;;;;;40.75;38.25;;;;;10.84;42.66;100666.53;5129263;27;8871;-77
2022/12/28 06:26:42;;;;;;;;;41.50;38.00;;;;;10.77;42.75;100673.38;5113500;27;8854;-75
2022/12/28 06:29:11;;;;;;;;;46.25;41.00;;;;;10.80;42.84;100673.44;5145374;27;8824;-73
2022/12/28 06:31:43;;;;;;;;;54.25;44.25;;;;;10.82;42.83;100669.09;5133704;27;8862;-77
2022/12/28 06:34:12;;;;;;;;;52.50;44.00;;;;;10.80;42.85;100665.59;5131758;27;8835;-75
2022/12/28 06:36:45;;;;;;;;;44.25;41.75;;;;;10.84;43.13;100659.56;5137609;27;8884;-77
2022/12/28 06:39:14;;;;;;;;;41.25;38.75;;;;;10.84;43.43;100659.56;5144867;27;8827;-73
2022/12/28 06:41:43;;;;;;;;;37.00;32.00;;;;;10.72;42.66;100662.88;5116080;27;8911;-75
2022/12/28 06:44:14;;;;;;;;;48.25;41.50;;;;;10.70;43.20;100658.50;5136583;27;8835;-76
2022/12/28 06:46:42;;;;;;;;;59.75;48.50;;;;;10.70;43.39;100659.34;5134261;27;8869;-74
2022/12/28 06:49:12;;;;;;;;;55.50;45.00;;;;;10.69;42.81;100649.75;5101901;27;8829;-74
2022/12/28 06:51:41;;;;;;;;;50.00;43.75;;;;;10.62;43.44;100663.53;5110887;27;8834;-75
2022/12/28 06:54:11;;;;;;;;;45.75;41.75;;;;;10.56;42.31;100657.34;5140839;27;8842;-79
2022/12/28 06:56:40;;;;;;;;;45.50;41.50;;;;;10.35;40.98;100658.72;5133932;27;8835;-77
2022/12/28 06:59:08;;;;;;;;;28.75;26.00;;;;;10.26;41.04;100658.53;5140330;27;8833;-75
2022/12/28 07:01:39;;;;;;;;;36.75;31.25;;;;;10.04;41.37;100660.72;5143486;27;8962;-77
2022/12/28 07:04:10;;;;;;;;;40.75;37.25;;;;;9.93;41.39;100667.44;5059538;27;8876;-77
2022/12/28 07:06:41;;;;;;;;;41.25;35.00;;;;;9.91;41.40;100663.94;5125347;27;8851;-77
2022/12/28 07:09:13;;;;;;;;;41.00;37.75;;;;;10.04;42.06;100663.34;5137160;27;8928;-77
2022/12/28 07:11:42;;;;;;;;;39.00;35.00;;;;;9.98;41.81;100663.22;5095230;27;8859;-76
2022/12/28 07:14:12;;;;;;;;;29.00;26.80;;;;;9.95;41.07;100669.22;5130478;27;8842;-74
2022/12/28 07:16:41;;;;;;;;;32.20;30.40;;;;;9.87;40.91;100663.00;5127589;27;8849;-77
2022/12/28 07:19:10;;;;;;;;;43.25;34.75;;;;;9.72;41.21;100658.34;5142304;27;8873;-77
2022/12/28 07:21:39;;;;;;;;;31.00;30.00;;;;;9.51;42.20;100657.91;5136468;27;8954;-74
2022/12/28 07:24:09;;;;;;;;;26.25;25.25;;;;;9.60;41.90;100647.66;5130465;27;8886;-76
2022/12/28 07:26:39;;;;;;;;;26.60;24.80;;;;;9.57;42.22;100663.22;5093952;27;8842;-74
2022/12/28 07:29:08;;;;;;;;;26.00;23.60;;;;;9.42;42.52;100662.91;5129094;27;8972;-75
2022/12/28 07:31:39;;;;;;;;;29.80;26.20;;;;;9.30;42.57;100653.97;5075704;27;8853;-77
2022/12/28 07:34:14;;;;;;;;;21.40;21.40;;;;;9.31;42.86;100653.13;5128146;27;8883;-76
2022/12/28 07:36:43;;;;;;;;;31.25;29.00;;;;;9.24;43.49;100648.59;5130731;27;8831;-75
2022/12/28 07:39:11;;;;;;;;;30.60;25.20;;;;;9.29;43.71;100653.94;5144184;27;8873;-76
2022/12/28 07:41:41;;;;;;;;;23.20;20.40;;;;;9.34;43.72;100653.19;5129779;27;8918;-74
2022/12/28 07:44:10;;;;;;;;;25.20;20.80;;;;;9.21;43.98;100655.50;5121981;27;8914;-77
2022/12/28 07:46:39;;;;;;;;;19.00;19.00;;;;;9.09;43.80;100650.84;5123929;27;8853;-79
2022/12/28 07:49:08;;;;;;;;;25.80;24.20;;;;;9.09;44.29;100656.97;5141280;27;8855;-78
2022/12/28 07:51:38;;;;;;;;;16.00;15.00;;;;;8.91;44.58;100653.91;5109230;27;8849;-76
2022/12/28 07:54:07;;;;;;;;;21.20;18.20;;;;;8.96;44.31;100661.00;5128629;27;8876;-79
2022/12/28 07:56:36;;;;;;;;;21.40;19.60;;;;;8.91;44.45;100664.31;5108212;27;9729;-76
2022/12/28 07:59:06;;;;;;;;;19.80;17.20;;;;;9.08;44.36;100663.00;5121602;27;8831;-78
2022/12/28 08:01:36;;;;;;;;;21.60;20.00;;;;;9.13;44.35;100668.28;5132664;27;8831;-77
2022/12/28 08:04:08;;;;;;;;;23.20;21.40;;;;;9.22;44.84;100665.03;5154082;27;8823;-79
2022/12/28 08:06:39;;;;;;;;;23.00;20.40;;;;;9.21;44.57;100673.72;5080211;27;8849;-80
2022/12/28 08:09:10;;;;;;;;;28.00;25.80;;;;;9.13;44.43;100664.00;5133235;27;9623;-78
2022/12/28 08:11:40;;;;;;;;;26.00;25.60;;;;;9.29;44.28;100667.81;5131862;27;8975;-77
2022/12/28 08:14:11;;;;;;;;;20.60;20.60;;;;;9.28;44.57;100672.97;5097016;27;8841;-76
2022/12/28 08:16:42;;;;;;;;;25.20;21.80;;;;;9.35;44.58;100670.56;5133316;27;8956;-77
2022/12/28 08:19:11;;;;;;;;;13.60;13.20;;;;;9.17;44.30;100665.81;5135037;27;9595;-75
2022/12/28 08:21:43;;;;;;;;;19.60;18.40;;;;;9.39;44.53;100653.28;5135543;27;8847;-78
2022/12/28 08:24:15;;;;;;;;;2.00;1.20;;;;;9.47;44.20;100654.34;5152537;27;8859;-77
2022/12/28 08:26:45;;;;;;;;;13.60;12.40;;;;;9.44;44.38;100669.03;5112956;27;9499;-78
2022/12/28 08:29:18;;;;;;;;;19.00;16.00;;;;;9.69;44.08;100668.69;5132406;27;8846;-78
2022/12/28 08:31:47;;;;;;;;;22.80;19.80;;;;;9.78;44.29;100677.56;5133097;27;8849;-77
2022/12/28 08:34:18;;;;;;;;;25.00;20.00;;;;;9.91;44.38;100657.00;5114273;27;8845;-79
2022/12/28 08:36:47;;;;;;;;;14.80;14.80;;;;;9.90;43.68;100659.56;5144058;27;8913;-77
2022/12/28 08:39:16;;;;;;;;;18.40;15.00;;;;;10.00;43.94;100663.22;5152306;27;8873;-75
2022/12/28 08:41:44;;;;;;;;;16.00;15.60;;;;;10.28;43.29;100664.63;5140244;27;8834;-77
2022/12/28 08:44:15;;;;;;;;;14.40;13.40;;;;;10.45;42.82;100655.44;5114433;27;8818;-78
2022/12/28 08:46:44;;;;;;;;;14.00;13.60;;;;;10.49;42.08;100645.94;5133049;27;8821;-78
2022/12/28 08:49:13;;;;;;;;;25.60;17.60;;;;;10.42;42.53;100652.78;5132791;27;8879;-79
2022/12/28 08:51:42;;;;;;;;;11.20;11.20;;;;;10.53;42.21;100651.25;5131753;27;8868;-77
2022/12/28 08:54:13;;;;;;;;;13.20;11.80;;;;;10.73;41.98;100648.94;5112847;27;8834;-73
2022/12/28 08:56:44;;;;;;;;;14.00;14.00;;;;;10.67;41.81;100634.94;5137966;27;8857;-77
2022/12/28 08:59:18;;;;;;;;;14.40;14.40;;;;;10.75;41.52;100628.09;5131635;27;8861;-77
2022/12/28 09:01:47;;;;;;;;;22.80;17.00;;;;;10.66;41.94;100621.03;5131553;27;8893;-76
2022/12/28 09:04:18;;;;;;;;;21.80;19.00;;;;;10.70;41.42;100615.00;5146094;27;8863;-80
2022/12/28 09:06:48;;;;;;;;;11.20;11.00;;;;;10.59;41.81;100600.03;5133949;27;8937;-79
2022/12/28 09:09:19;;;;;;;;;16.00;14.80;;;;;10.70;41.94;100604.56;5130870;27;8826;-78
2022/12/28 09:11:49;;;;;;;;;14.60;14.60;;;;;10.85;42.19;100603.03;5146417;27;8921;-79
2022/12/28 09:14:19;;;;;;;;;13.00;13.00;;;;;10.90;41.97;100602.25;5107022;27;8923;-79
2022/12/28 09:16:52;;;;;;;;;26.20;21.20;;;;;11.05;42.33;100593.78;5137457;27;8823;-73
2022/12/28 09:19:22;;;;;;;;;16.20;16.20;;;;;10.93;42.06;100591.00;5140315;27;8873;-71
2022/12/28 09:21:52;;;;;;;;;18.20;16.20;;;;;11.00;42.31;100581.50;5143905;27;8834;-77
2022/12/28 09:24:21;;;;;;;;;11.80;11.40;;;;;11.08;40.77;100590.34;5133393;27;8893;-79
2022/12/28 09:26:53;;;;;;;;;18.80;17.60;;;;;11.06;41.54;100585.09;5137677;27;8833;-76
2022/12/28 09:29:23;;;;;;;;;22.00;19.80;;;;;11.26;40.52;100579.28;5108489;27;8856;-75
2022/12/28 09:31:52;;;;;;;;;15.60;15.00;;;;;11.19;39.99;100573.09;5110281;28;8926;-79
2022/12/28 09:34:21;;;;;;;;;16.80;16.80;;;;;11.27;40.79;100570.59;5124782;27;8879;-78
2022/12/28 09:37:05;;;;;;;;;15.80;15.80;;;;;11.35;40.29;100576.78;5122540;27;8965;-78
2022/12/28 09:39:34;;;;;;;;;21.20;18.60;;;;;11.41;41.04;100581.22;5129503;27;8970;-80
2022/12/28 09:42:06;;;;;;;;;18.40;17.60;;;;;11.56;40.65;100585.75;5119714;27;8861;-76
2022/12/28 09:44:49;;;;;;;;;22.00;20.00;;;;;11.74;40.26;100577.22;5123845;27;8947;-75
2022/12/28 09:47:25;;;;;;;;;16.00;15.60;;;;;11.75;39.95;100585.09;5109027;27;8825;-79
2022/12/28 09:50:03;;;;;;;;;16.20;15.00;;;;;11.70;39.31;100582.44;5109345;27;8880;-76
2022/12/28 09:52:35;;;;;;;;;16.00;14.00;;;;;11.76;39.02;100591.19;5079806;27;8877;-78
2022/12/28 09:55:12;;;;;;;;;19.80;17.20;;;;;11.81;39.13;100602.59;5122988;27;8860;-79
2022/12/28 09:57:45;;;;;;;;;15.60;14.40;;;;;11.88;38.94;100591.34;5125914;27;8857;-78
2022/12/28 10:00:21;;;;;;;;;13.20;12.60;;;;;11.81;39.25;100579.94;5125809;27;8941;-78
2022/12/28 10:02:54;;;;;;;;;15.20;13.00;;;;;11.90;38.78;100577.47;5108032;28;8916;-80
2022/12/28 10:05:23;;;;;;;;;17.60;16.60;;;;;11.83;39.04;100578.25;5091492;27;8884;-79
2022/12/28 10:07:54;;;;;;;;;15.00;15.00;;;;;11.78;38.25;100572.06;5091215;28;8856;-78
2022/12/28 10:10:24;;;;;;;;;16.80;16.00;;;;;11.87;38.98;100564.34;5108821;28;8864;-80
2022/12/28 10:12:54;;;;;;;;;16.60;14.60;;;;;11.89;38.44;100569.59;5108594;28;8845;-79
2022/12/28 10:15:28;;;;;;;;;15.00;13.00;;;;;11.94;37.88;100565.28;5091611;28;8964;-81
2022/12/28 10:17:57;;;;;;;;;16.20;15.80;;;;;12.02;37.78;100565.38;5109591;28;8875;-79
2022/12/28 10:20:26;;;;;;;;;11.80;9.00;;;;;12.01;38.71;100561.91;5110010;28;8879;-80
2022/12/28 10:22:57;;;;;;;;;5.40;5.40;;;;;12.20;38.58;100562.94;5126058;27;8887;-79
2022/12/28 10:25:27;;;;;;;;;5.40;4.20;;;;;12.08;37.83;100560.22;5100062;28;9626;-80
2022/12/28 10:27:56;;;;;;;;;23.40;21.80;;;;;12.24;38.20;100553.41;5118505;27;8828;-83
2022/12/28 10:30:27;;;;;;;;;18.20;18.20;;;;;12.26;38.14;100551.66;5053436;28;8918;-79
2022/12/28 10:32:58;;;;;;;;;38.00;33.00;;;;;12.16;38.59;100542.00;5087896;28;8831;-82
2022/12/28 10:35:38;;;;;;;;;44.00;41.50;;;;;12.26;39.66;100544.69;5098744;28;8857;-76
2022/12/28 10:38:19;;;;;;;;;38.20;34.80;;;;;12.48;39.22;100548.38;5090711;28;8860;-78
2022/12/28 10:40:58;;;;;;;;;40.25;39.25;;;;;12.60;38.76;100538.84;5090603;28;8877;-78
2022/12/28 10:43:33;;;;;;;;;38.75;34.50;;;;;12.65;39.66;100548.50;5073150;28;8854;-79
2022/12/28 10:46:06;;;;;;;;;43.25;36.50;;;;;12.78;38.50;100551.19;5071734;28;8876;-78
2022/12/28 10:48:38;;;;;;;;;48.00;39.50;;;;;12.84;39.00;100541.63;5095751;28;8821;-79
2022/12/28 10:51:13;;;;;;;;;47.50;40.75;;;;;12.97;38.05;100544.34;5125086;27;8861;-82
2022/12/28 10:53:45;;;;;;;;;53.25;42.00;;;;;12.87;38.61;100539.06;5109312;28;8845;-78
2022/12/28 10:56:26;;;;;;;;;47.25;41.75;;;;;12.87;38.03;100538.16;5097099;28;8867;-82
2022/12/28 10:59:19;;;;;;;;;36.25;36.00;;;;;13.04;38.28;100539.16;5088193;28;8840;-77
2022/12/28 11:01:48;;;;;;;;;33.60;30.20;;;;;13.06;38.78;100537.41;5088565;28;8840;-79
2022/12/28 11:04:20;;;;;;;;;37.00;35.60;;;;;13.11;38.35;100532.19;5102743;28;8844;-75
2022/12/28 11:06:53;;;;;;;;;43.25;37.00;;;;;13.22;38.76;100534.88;5088147;28;8869;-75
2022/12/28 11:09:25;;;;;;;;;37.00;31.50;;;;;13.35;38.52;100538.44;5099956;28;8839;-78
2022/12/28 11:11:55;;;;;;;;;30.80;30.20;;;;;13.30;38.37;100529.66;5087532;28;8848;-76
2022/12/28 11:14:31;;;;;;;;;29.20;26.20;;;;;13.44;38.24;100528.88;5088764;28;8866;-80
2022/12/28 11:17:15;;;;;;;;;34.80;34.20;;;;;13.40;38.45;100516.63;5088689;28;8867;-76
2022/12/28 11:19:44;;;;;;;;;28.80;27.60;;;;;13.25;38.40;100527.91;5102741;28;8871;-75
2022/12/28 11:22:17;;;;;;;;;27.00;24.00;;;;;13.39;37.70;100514.88;5103810;28;8835;-78
2022/12/28 11:24:46;;;;;;;;;30.20;26.60;;;;;13.14;38.09;100513.88;5089904;28;8864;-75
2022/12/28 11:27:19;;;;;;;;;23.60;22.20;;;;;13.33;38.45;100511.38;5105453;28;8891;-78
2022/12/28 11:29:51;;;;;;;;;34.75;31.00;;;;;13.39;38.35;100507.03;5122264;27;8864;-81
2022/12/28 11:32:25;;;;;;;;;30.20;28.20;;;;;13.33;37.76;100506.13;5087305;28;9712;-78
2022/12/28 11:34:56;;;;;;;;;30.40;27.80;;;;;13.27;38.01;100488.63;5086778;28;8856;-79
2022/12/28 11:37:25;;;;;;;;;19.25;17.75;;;;;13.09;38.51;100483.31;5088105;28;8828;-79
2022/12/28 11:39:54;;;;;;;;;30.00;30.00;;;;;12.94;39.04;100487.59;5106477;28;8832;-77
2022/12/28 11:42:53;;;;;;;;;24.60;23.60;;;;;13.20;38.29;100476.38;5087041;28;8923;-77
2022/12/28 11:45:55;;;;;;;;;39.00;33.20;;;;;13.12;38.81;100476.34;5007829;28;8898;-81
2022/12/28 11:48:55;;;;;;;;;35.50;34.50;;;;;13.13;39.09;100471.97;5025040;28;8867;-75
2022/12/28 11:51:27;;;;;;;;;37.75;33.75;;;;;12.90;39.55;100464.00;5025057;28;8932;-80
2022/12/28 11:53:58;;;;;;;;;40.50;38.25;;;;;12.82;39.66;100474.44;5025113;28;8839;-78
2022/12/28 11:56:57;;;;;;;;;41.50;37.75;;;;;12.74;39.81;100463.03;5008520;28;8924;-79
2022/12/28 11:59:27;;;;;;;;;39.75;37.00;;;;;12.68;40.20;100458.66;5008497;28;9667;-81
2022/12/28 12:01:59;;;;;;;;;42.75;36.50;;;;;12.65;40.33;100454.28;5025333;28;8867;-79
2022/12/28 12:04:43;;;;;;;;;47.75;36.25;;;;;12.86;40.09;100444.81;5025313;28;8945;-79
2022/12/28 12:07:19;;;;;;;;;31.50;29.50;;;;;12.63;39.99;100445.56;4984404;28;8887;-78
2022/12/28 12:10:34;;;;;;;;;39.20;33.00;;;;;12.78;39.41;100442.16;5045026;28;8907;-78